Terminal Aerodrome Forecast
Issued by NWS

Home | Current Version | Previous Version | Text Only | Print | Product List | Glossary On
Versions: 1 2 3 4 5 6 7 8 9 10 11 12 13 14
000
FTUS44 KBMX 180500
TAFMGM
TAF
KMGM 180520Z 1806/1906 00000KT P6SM BKN250
     FM181500 35004KT P6SM OVC100
     FM190300 00000KT P6SM SCT100 BKN250=

USA.gov is the U.S. government's official web portal to all federal, state and local government web resources and services.